Time;durP1;ratioP1;P1;durP2;ratioP2;P2;SDS_P1;SDS_P2;PMS_P1;PMS_P2;Temp;Humidity;BMP_temperature;BMP_pressure;BME280_temperature;BME280_humidity;BME280_pressure;Samples;Min_cycle;Max_cycle;Signal;HPM_P1;HPM_P2
2022/05/21 00:02:49;;;;;;;4.38;3.13;;;;;;;21.57;61.54;98570.97;5074637;28;20066;-60
2022/05/21 00:05:33;;;;;;;4.95;3.15;;;;;;;21.45;62.10;98583.06;5074076;28;20165;-59
2022/05/21 00:08:18;;;;;;;10.55;2.80;;;;;;;21.75;60.66;98589.28;5059354;28;20043;-59
2022/05/21 00:11:04;;;;;;;5.82;3.05;;;;;;;21.96;59.86;98662.41;5074228;28;20037;-61
2022/05/21 00:13:48;;;;;;;4.35;3.20;;;;;;;21.85;60.54;98773.00;5073611;28;20040;-60
2022/05/21 00:16:33;;;;;;;4.07;2.83;;;;;;;21.55;61.95;98890.06;5074340;28;20068;-61
2022/05/21 00:19:17;;;;;;;5.93;3.45;;;;;;;21.69;62.55;98869.03;5072982;28;20041;-61
2022/05/21 00:22:03;;;;;;;8.38;3.30;;;;;;;21.25;67.16;98828.63;5074594;28;20041;-60
2022/05/21 00:24:48;;;;;;;5.88;3.20;;;;;;;20.73;72.57;98860.03;5077223;28;20033;-61
2022/05/21 00:27:32;;;;;;;13.50;4.03;;;;;;;19.98;81.12;98865.31;5075287;28;20102;-61
2022/05/21 00:30:17;;;;;;;8.43;3.63;;;;;;;19.12;90.39;98859.09;5073225;28;20543;-60
2022/05/21 00:33:03;;;;;;;7.43;3.90;;;;;;;19.03;94.31;98860.84;5078833;28;20090;-60
2022/05/21 00:35:48;;;;;;;11.02;3.70;;;;;;;18.75;98.76;98873.44;5081417;28;20051;-60
2022/05/21 00:38:33;;;;;;;6.22;3.38;;;;;;;18.55;100.00;98885.09;5081032;28;20093;-60
2022/05/21 00:41:18;;;;;;;5.57;2.67;;;;;;;18.33;100.00;98879.28;5055371;28;20103;-61
2022/05/21 00:44:04;;;;;;;9.27;3.25;;;;;;;18.01;100.00;98824.97;5053085;28;20041;-60
2022/05/21 00:46:48;;;;;;;8.90;3.30;;;;;;;17.72;100.00;98831.31;5053434;28;20044;-59
2022/05/21 00:49:36;;;;;;;8.85;2.95;;;;;;;17.57;100.00;98815.09;5054012;28;20060;-59
2022/05/21 00:52:24;;;;;;;5.95;2.67;;;;;;;17.67;100.00;98833.59;5053397;28;20037;-60
2022/05/21 00:55:15;;;;;;;4.95;2.70;;;;;;;17.64;100.00;98842.66;5052880;28;20041;-60
2022/05/21 01:01:14;;;;;;;6.05;2.60;;;;;;;17.78;100.00;98885.50;5053609;28;20044;-61
2022/05/21 01:03:58;;;;;;;8.25;2.50;;;;;;;17.81;100.00;98891.34;5038751;28;20392;-60
2022/05/21 01:06:43;;;;;;;4.07;2.10;;;;;;;18.00;98.93;98917.88;5051899;28;20487;-60
2022/05/21 01:09:29;;;;;;;5.82;2.50;;;;;;;18.08;99.38;98928.56;5052816;28;20065;-59
2022/05/21 01:12:13;;;;;;;4.18;1.70;;;;;;;18.03;97.32;98939.63;5053176;28;20118;-59
2022/05/21 01:15:03;;;;;;;9.45;2.00;;;;;;;18.10;95.91;98945.13;5052979;28;20127;-59
2022/05/21 01:17:48;;;;;;;5.20;1.52;;;;;;;18.06;95.66;98957.03;5052189;28;20063;-59
2022/05/21 01:20:47;;;;;;;5.53;1.98;;;;;;;17.95;96.73;98966.03;5052385;28;20045;-61
2022/05/21 01:23:33;;;;;;;3.80;1.73;;;;;;;17.85;97.89;98963.44;5053021;28;20056;-61
2022/05/21 01:26:21;;;;;;;8.63;2.20;;;;;;;17.72;99.49;98954.00;5052884;28;20044;-61
2022/05/21 01:29:28;;;;;;;3.40;1.80;;;;;;;17.73;99.01;98910.66;5051833;28;20041;-61
2022/05/21 01:32:17;;;;;;;2.85;1.67;;;;;;;17.87;97.48;98921.69;5052334;28;20373;-61
2022/05/21 01:35:03;;;;;;;6.28;2.20;;;;;;;17.76;100.00;98903.38;5052699;28;20048;-60
2022/05/21 01:37:49;;;;;;;4.78;1.88;;;;;;;17.73;99.81;98892.09;5069935;28;20044;-61
2022/05/21 01:40:34;;;;;;;6.90;2.00;;;;;;;17.85;99.88;98863.56;5057645;28;20036;-60
2022/05/21 01:46:23;;;;;;;4.25;1.92;;;;;;;17.91;100.00;98795.91;5072874;28;20044;-61
2022/05/21 01:49:08;;;;;;;2.50;1.60;;;;;;;17.96;100.00;98764.47;5072374;28;20037;-61
2022/05/21 01:51:54;;;;;;;5.22;2.20;;;;;;;18.06;100.00;98750.28;5073046;28;20129;-61
2022/05/21 01:54:39;;;;;;;4.38;1.95;;;;;;;18.19;100.00;98768.47;5072580;28;20044;-60
2022/05/21 01:57:23;;;;;;;2.83;1.63;;;;;;;17.99;100.00;98784.53;5072896;28;20048;-61
2022/05/21 02:00:10;;;;;;;5.38;2.00;;;;;;;17.83;100.00;98779.91;5057692;28;20045;-61
2022/05/21 02:02:56;;;;;;;4.20;2.25;;;;;;;17.83;100.00;98780.75;5071741;28;20431;-61
2022/05/21 02:05:44;;;;;;;5.20;2.13;;;;;;;17.55;100.00;98785.28;5072500;28;20098;-61
2022/05/21 02:08:29;;;;;;;4.15;1.90;;;;;;;17.36;100.00;98772.00;5075562;28;20380;-61
2022/05/21 02:11:14;;;;;;;6.20;2.42;;;;;;;17.29;100.00;98772.75;5076503;28;20094;-60
2022/05/21 02:13:59;;;;;;;4.97;2.17;;;;;;;17.30;100.00;98762.03;5076715;28;20036;-61
2022/05/21 02:16:43;;;;;;;3.00;1.88;;;;;;;17.37;100.00;98754.31;5054649;28;20391;-61
2022/05/21 02:19:29;;;;;;;6.15;2.08;;;;;;;17.46;100.00;98756.06;5075791;28;20052;-60
2022/05/21 02:22:15;;;;;;;6.75;2.05;;;;;;;17.71;100.00;98747.53;5075589;28;20040;-60
2022/05/21 02:24:59;;;;;;;7.57;2.42;;;;;;;17.79;100.00;98742.28;5076394;28;20036;-60
2022/05/21 02:27:44;;;;;;;3.35;2.10;;;;;;;17.83;100.00;98734.88;5075416;28;20387;-61
2022/05/21 02:30:29;;;;;;;7.70;2.58;;;;;;;17.89;100.00;98726.31;5075556;28;20051;-61
2022/05/21 02:33:14;;;;;;;3.05;1.65;;;;;;;17.98;100.00;98725.38;5061038;28;20040;-61
2022/05/21 02:35:59;;;;;;;2.28;1.83;;;;;;;17.87;100.00;98719.50;5075293;28;20079;-61
2022/05/21 02:41:47;;;;;;;6.30;2.00;;;;;;;17.98;100.00;98725.38;5075035;28;20045;-60
2022/05/21 02:44:31;;;;;;;3.75;2.00;;;;;;;17.95;100.00;98728.34;5061046;28;20097;-61
2022/05/21 02:47:16;;;;;;;5.28;1.73;;;;;;;17.81;100.00;98742.97;5058154;28;20045;-60
2022/05/21 02:50:01;;;;;;;4.30;2.00;;;;;;;17.69;100.00;98744.22;5062368;28;20037;-60
2022/05/21 02:52:47;;;;;;;3.17;1.58;;;;;;;17.57;100.00;98744.44;5055891;28;20448;-61
2022/05/21 02:55:32;;;;;;;3.05;2.10;;;;;;;17.54;100.00;98752.69;5054943;28;20048;-61
2022/05/21 02:58:17;;;;;;;3.55;1.85;;;;;;;17.47;100.00;98764.84;5055627;28;20041;-60
2022/05/21 03:01:03;;;;;;;3.95;1.90;;;;;;;17.57;100.00;98765.63;5055118;28;20075;-60
2022/05/21 03:03:48;;;;;;;2.67;1.80;;;;;;;17.68;100.00;98775.16;5054771;28;20122;-60
2022/05/21 03:06:34;;;;;;;3.90;2.25;;;;;;;17.80;100.00;98780.22;5055721;28;20033;-61
2022/05/21 03:12:23;;;;;;;3.63;1.65;;;;;;;17.87;100.00;98794.50;5054496;28;20055;-60
2022/05/21 03:15:08;;;;;;;2.88;1.73;;;;;;;17.88;100.00;98817.41;5055581;28;20037;-60
2022/05/21 03:17:53;;;;;;;4.55;1.90;;;;;;;17.89;100.00;98839.44;5054467;28;20033;-61
2022/05/21 03:20:39;;;;;;;5.03;2.35;;;;;;;17.73;100.00;98864.75;5054509;28;20044;-60
2022/05/21 03:23:23;;;;;;;3.72;1.73;;;;;;;17.77;100.00;98875.91;5056635;28;20060;-61
2022/05/21 03:26:09;;;;;;;4.03;1.00;;;;;;;17.99;98.36;98893.19;5054461;28;20540;-60
2022/05/21 03:28:55;;;;;;;0.85;0.70;;;;;;;19.86;84.37;98905.53;5061177;28;20037;-61
2022/05/21 03:31:40;;;;;;;4.85;2.35;;;;;;;20.10;91.71;98938.50;5056901;28;20047;-60
2022/05/21 03:34:24;;;;;;;5.68;2.45;;;;;;;18.08;100.00;98953.22;5071099;28;20498;-60
2022/05/21 03:37:09;;;;;;;5.00;2.15;;;;;;;17.54;100.00;98963.72;5064033;28;20063;-61
2022/05/21 03:39:54;;;;;;;4.40;2.30;;;;;;;17.36;100.00;98946.75;5053354;28;20045;-60
2022/05/21 03:42:38;;;;;;;7.95;2.80;;;;;;;17.21;100.00;98925.22;5056162;28;20037;-60
2022/05/21 03:45:24;;;;;;;8.32;2.47;;;;;;;17.12;100.00;98920.78;5054656;28;20114;-60
2022/05/21 03:48:08;;;;;;;5.22;2.17;;;;;;;17.08;100.00;98899.09;5062056;28;20116;-60
2022/05/21 03:50:54;;;;;;;3.70;2.38;;;;;;;17.06;100.00;98901.00;5056688;28;20040;-60
2022/05/21 03:53:39;;;;;;;5.03;2.42;;;;;;;17.04;100.00;98886.25;5058212;28;20112;-61
2022/05/21 03:56:24;;;;;;;5.03;2.38;;;;;;;17.00;100.00;98880.41;5061727;28;20043;-59
2022/05/21 03:59:09;;;;;;;7.15;2.20;;;;;;;16.94;100.00;98881.00;5061230;28;20430;-59
2022/05/21 04:01:53;;;;;;;5.05;1.95;;;;;;;16.94;100.00;98892.38;5058522;28;20037;-60
2022/05/21 04:04:39;;;;;;;5.32;2.33;;;;;;;16.91;100.00;98874.16;5060764;28;20054;-60
2022/05/21 04:07:24;;;;;;;5.50;2.00;;;;;;;16.85;100.00;98864.16;5057192;28;20076;-59
2022/05/21 04:10:10;;;;;;;4.95;2.17;;;;;;;16.87;100.00;98870.16;5054303;28;20033;-60
2022/05/21 04:12:55;;;;;;;6.53;2.00;;;;;;;16.97;100.00;98857.69;5059977;28;20094;-59
2022/05/21 04:15:40;;;;;;;7.75;2.20;;;;;;;17.01;100.00;98838.91;5044220;28;20083;-61
2022/05/21 04:18:26;;;;;;;4.70;2.03;;;;;;;17.09;100.00;98831.09;5052068;28;20118;-61
2022/05/21 04:21:10;;;;;;;5.30;2.38;;;;;;;17.17;100.00;98827.75;5059662;28;20046;-59
2022/05/21 04:23:55;;;;;;;3.83;1.73;;;;;;;17.28;100.00;98819.59;5044826;28;20036;-61
2022/05/21 04:26:41;;;;;;;3.97;1.88;;;;;;;17.33;100.00;98830.56;5055807;28;20056;-60
2022/05/21 04:29:26;;;;;;;4.80;1.92;;;;;;;17.33;100.00;98819.16;5057935;28;20052;-60
2022/05/21 04:32:11;;;;;;;3.78;1.70;;;;;;;17.38;100.00;98824.84;5057178;28;20046;-59
2022/05/21 04:34:56;;;;;;;2.50;1.52;;;;;;;17.41;100.00;98821.91;5056839;28;20424;-61
2022/05/21 04:37:41;;;;;;;3.28;1.33;;;;;;;17.37;100.00;98825.81;5056664;28;20045;-61
2022/05/21 04:40:25;;;;;;;6.22;1.52;;;;;;;17.38;100.00;98816.06;5068423;28;20051;-61
2022/05/21 04:43:10;;;;;;;3.65;1.85;;;;;;;17.83;100.00;98831.09;5066698;28;20477;-64
2022/05/21 04:45:56;;;;;;;6.22;1.40;;;;;;;17.70;100.00;98830.63;5069099;28;20460;-63
2022/05/21 04:48:41;;;;;;;3.03;1.60;;;;;;;17.57;100.00;98826.53;5055885;28;20118;-63
2022/05/21 04:51:25;;;;;;;4.85;1.70;;;;;;;17.42;100.00;98834.16;5049967;28;20070;-64
2022/05/21 04:54:10;;;;;;;5.07;1.92;;;;;;;17.45;100.00;98833.84;5061954;28;20133;-63
2022/05/21 04:56:56;;;;;;;4.30;1.70;;;;;;;17.48;100.00;98825.59;5053016;28;20515;-64
2022/05/21 04:59:40;;;;;;;4.25;1.88;;;;;;;17.38;100.00;98830.13;5053696;28;20045;-66
2022/05/21 05:02:25;;;;;;;5.45;1.80;;;;;;;17.36;100.00;98824.97;5072208;28;20037;-64
2022/05/21 05:05:10;;;;;;;3.97;1.80;;;;;;;17.41;100.00;98836.94;5074138;28;20084;-62
2022/05/21 05:07:55;;;;;;;3.72;1.70;;;;;;;17.32;100.00;98842.13;5078144;28;20037;-66
2022/05/21 05:10:40;;;;;;;4.18;1.70;;;;;;;17.41;100.00;98850.19;5065280;28;20044;-62
2022/05/21 05:13:27;;;;;;;5.13;2.13;;;;;;;17.29;100.00;98846.88;5057365;28;20044;-65
2022/05/21 05:16:13;;;;;;;5.53;2.00;;;;;;;17.26;100.00;98839.25;5075989;28;20035;-63
2022/05/21 05:18:59;;;;;;;5.82;1.88;;;;;;;17.38;100.00;98848.69;5064579;28;20116;-63
2022/05/21 05:21:44;;;;;;;4.78;2.20;;;;;;;17.27;100.00;98854.16;5082100;28;20051;-62
2022/05/21 05:24:28;;;;;;;3.15;2.15;;;;;;;17.35;100.00;98855.09;5061106;28;20040;-59
2022/05/21 05:27:13;;;;;;;4.53;2.00;;;;;;;17.53;100.00;98850.81;5054474;28;20048;-65
2022/05/21 05:30:00;;;;;;;4.60;2.00;;;;;;;17.73;100.00;98870.91;5066560;28;20036;-60
2022/05/21 05:32:45;;;;;;;4.47;2.03;;;;;;;17.94;100.00;98869.78;5045811;28;20040;-65
2022/05/21 05:35:31;;;;;;;5.07;2.00;;;;;;;17.82;100.00;98881.59;5099561;28;20105;-64
2022/05/21 05:38:15;;;;;;;5.50;2.20;;;;;;;17.61;100.00;98875.56;5071155;28;20384;-67
2022/05/21 05:41:02;;;;;;;3.83;2.20;;;;;;;17.70;100.00;98884.44;5071990;28;20102;-64
2022/05/21 05:43:46;;;;;;;3.90;2.00;;;;;;;17.81;100.00;98883.41;5052831;28;20064;-63
2022/05/21 05:46:32;;;;;;;6.03;2.58;;;;;;;18.16;100.00;98885.41;5052601;28;20045;-63
2022/05/21 05:49:17;;;;;;;4.63;2.22;;;;;;;18.36;100.00;98890.56;5055580;28;20040;-65
2022/05/21 05:52:02;;;;;;;3.90;2.15;;;;;;;18.50;100.00;98891.84;5040010;28;20070;-64
2022/05/21 05:54:46;;;;;;;3.95;1.88;;;;;;;18.69;100.00;98896.13;5052612;28;20037;-64
2022/05/21 05:57:31;;;;;;;5.95;2.20;;;;;;;19.04;100.00;98889.06;5054915;28;20044;-64
2022/05/21 06:00:17;;;;;;;5.78;2.17;;;;;;;18.94;100.00;98883.84;5054627;28;20126;-64
2022/05/21 06:03:02;;;;;;;6.53;2.05;;;;;;;19.42;100.00;98877.31;5052204;28;20036;-64
2022/05/21 06:05:49;;;;;;;4.75;2.25;;;;;;;19.64;99.92;98880.38;5058017;28;20041;-65
2022/05/21 06:08:34;;;;;;;5.32;2.17;;;;;;;19.83;98.29;98876.59;5055274;28;20047;-64
2022/05/21 06:11:19;;;;;;;5.88;1.83;;;;;;;19.87;99.07;98888.56;5061715;28;20041;-65
2022/05/21 06:14:05;;;;;;;6.50;2.00;;;;;;;20.13;97.52;98884.16;5053561;28;20431;-64
2022/05/21 06:16:56;;;;;;;;;;;;;;;20.24;97.41;98881.16;5054862;28;20033;-65
2022/05/21 06:19:41;;;;;;;5.47;2.40;;;;;;;20.28;97.72;98881.66;5058509;28;19923;-63
2022/05/21 06:22:26;;;;;;;4.85;2.35;;;;;;;20.05;99.31;98882.31;5052111;28;20048;-64
2022/05/21 06:25:17;;;;;;;6.20;2.22;;;;;;;19.84;100.00;98882.75;5049660;28;20037;-66
2022/05/21 06:28:03;;;;;;;3.42;2.30;;;;;;;19.71;100.00;98878.72;5052913;28;20041;-56
2022/05/21 06:30:48;;;;;;;3.97;2.33;;;;;;;19.99;100.00;98883.78;5051495;28;20064;-64
2022/05/21 06:33:33;;;;;;;4.65;2.28;;;;;;;20.11;98.29;98889.63;5051516;28;20041;-65
2022/05/21 06:36:28;;;;;;;4.28;2.20;;;;;;;20.92;95.68;98890.81;5050315;28;20059;-55
2022/05/21 06:39:13;;;;;;;9.30;2.10;;;;;;;20.88;96.17;98897.41;5052922;28;20037;-62
2022/05/21 06:41:58;;;;;;;4.50;2.50;;;;;;;21.46;89.72;98894.59;5052084;28;20444;-61
2022/05/21 06:44:45;;;;;;;5.05;2.22;;;;;;;21.66;87.69;98907.50;5055019;28;20107;-61
2022/05/21 06:47:30;;;;;;;6.63;2.20;;;;;;;21.82;87.65;98913.81;5055680;28;20040;-61
2022/05/21 06:50:15;;;;;;;5.20;2.80;;;;;;;22.19;85.46;98914.06;5052153;28;20115;-60
2022/05/21 06:53:00;;;;;;;6.65;2.58;;;;;;;21.60;87.17;98911.72;5052392;28;20037;-61
2022/05/21 06:55:45;;;;;;;3.65;2.40;;;;;;;21.55;86.26;98914.06;5055636;28;20044;-61
2022/05/21 06:58:30;;;;;;;4.47;2.30;;;;;;;21.70;84.77;98918.66;5054605;28;20041;-61
2022/05/21 07:01:15;;;;;;;3.22;2.10;;;;;;;22.33;81.79;98915.97;5083237;28;20036;-62
2022/05/21 07:03:59;;;;;;;4.82;2.08;;;;;;;22.35;79.98;98929.97;5055053;28;20392;-62
2022/05/21 07:09:48;;;;;;;4.43;2.00;;;;;;;22.91;76.35;98940.53;5057692;28;20037;-62
2022/05/21 07:12:33;;;;;;;2.60;1.90;;;;;;;22.40;77.62;98930.25;5055998;28;20056;-62
2022/05/21 07:15:19;;;;;;;6.15;1.98;;;;;;;22.27;79.05;98932.69;5055702;28;20427;-64
2022/05/21 07:18:03;;;;;;;6.97;2.45;;;;;;;22.60;76.79;98935.16;5054563;28;20052;-61
2022/05/21 07:20:49;;;;;;;3.65;2.10;;;;;;;23.01;74.72;98928.56;5054521;28;20044;-61
2022/05/21 07:23:34;;;;;;;4.00;2.10;;;;;;;22.92;74.99;98943.03;5056802;28;20051;-62
2022/05/21 07:26:21;;;;;;;5.38;2.17;;;;;;;23.02;74.74;98929.41;5060129;28;20077;-61
2022/05/21 07:29:07;;;;;;;3.42;2.13;;;;;;;23.22;73.17;98934.22;5074226;28;20478;-62
2022/05/21 07:31:52;;;;;;;3.80;1.98;;;;;;;22.47;74.61;98929.53;5075426;28;20041;-61
2022/05/21 07:34:37;;;;;;;4.35;2.00;;;;;;;22.13;77.46;98935.09;5060086;28;20446;-63
2022/05/21 07:37:22;;;;;;;8.32;1.98;;;;;;;22.32;76.99;98937.50;5075120;28;20364;-62
2022/05/21 07:40:08;;;;;;;4.53;2.35;;;;;;;22.09;76.91;98938.31;5059927;28;20479;-62
2022/05/21 07:42:54;;;;;;;3.88;2.03;;;;;;;22.06;77.53;98928.84;5073922;28;20055;-62
2022/05/21 07:45:41;;;;;;;4.28;1.92;;;;;;;21.85;78.74;98932.97;5075067;28;20062;-62
2022/05/21 07:48:27;;;;;;;6.28;2.22;;;;;;;22.57;74.58;98927.44;5073831;28;20043;-63
2022/05/21 07:51:12;;;;;;;4.40;2.55;;;;;;;22.24;76.17;98933.03;5075045;28;20040;-62
2022/05/21 07:53:57;;;;;;;3.70;2.30;;;;;;;22.27;76.71;98946.88;5074679;28;20403;-61
2022/05/21 07:56:42;;;;;;;4.50;2.42;;;;;;;22.72;74.60;98935.53;5074517;28;20399;-63
2022/05/21 07:59:26;;;;;;;5.50;2.58;;;;;;;22.61;74.27;98947.47;5074748;28;20036;-62
2022/05/21 08:02:15;;;;;;;5.18;2.08;;;;;;;22.78;75.29;98947.34;5073757;28;20086;-63
2022/05/21 08:05:00;;;;;;;5.75;2.78;;;;;;;21.83;77.74;98945.63;5073789;28;20429;-63
2022/05/21 08:07:50;;;;;;;4.93;2.92;;;;;;;21.84;78.32;98936.59;5074722;28;20482;-62
2022/05/21 08:10:37;;;;;;;4.38;2.83;;;;;;;22.03;77.27;98942.53;5074484;28;20475;-63
2022/05/21 08:13:22;;;;;;;8.60;2.92;;;;;;;22.86;74.04;98943.75;5073778;28;20052;-63
2022/05/21 08:16:08;;;;;;;3.53;2.38;;;;;;;23.26;71.80;98944.34;5073576;28;20041;-63
2022/05/21 08:18:52;;;;;;;5.38;2.53;;;;;;;22.70;74.03;98934.06;5073365;28;20040;-63
2022/05/21 08:21:38;;;;;;;3.47;2.22;;;;;;;22.28;76.28;98943.19;5074211;28;20082;-61
2022/05/21 08:27:25;;;;;;;3.95;2.60;;;;;;;23.77;70.67;98936.59;5073934;28;20384;-63
2022/05/21 08:30:10;;;;;;;4.55;2.85;;;;;;;24.06;68.00;98942.88;5074203;28;20033;-62
2022/05/21 08:33:06;;;;;;;5.95;2.40;;;;;;;23.71;67.87;98930.16;5074382;28;20037;-63
2022/05/21 08:35:51;;;;;;;5.18;2.47;;;;;;;24.45;64.63;98922.09;5074250;28;20032;-62
2022/05/21 08:38:36;;;;;;;4.22;2.17;;;;;;;24.54;64.78;98935.34;5074108;28;20489;-62
2022/05/21 08:41:27;;;;;;;4.10;2.20;;;;;;;24.44;63.52;98931.16;5074185;28;20415;-63
2022/05/21 08:44:34;;;;;;;4.25;1.83;;;;;;;24.52;61.68;98940.03;5073092;28;20040;-62
2022/05/21 08:47:35;;;;;;;2.83;1.57;;;;;;;24.10;55.84;98941.50;5073757;28;20360;-64
2022/05/21 08:50:22;;;;;;;3.55;1.50;;;;;;;25.00;56.01;98952.00;5072701;28;20048;-64
2022/05/21 08:53:11;;;;;;;3.33;1.25;;;;;;;25.18;51.54;98943.47;5072599;28;20478;-62
2022/05/21 08:55:59;;;;;;;2.17;1.05;;;;;;;24.53;50.43;98939.03;5073546;28;20476;-62
2022/05/21 08:58:48;;;;;;;2.45;1.27;;;;;;;25.03;50.02;98949.75;5072564;28;20115;-63
2022/05/21 09:01:35;;;;;;;2.92;0.95;;;;;;;24.79;49.47;98954.47;5073263;28;20106;-62
2022/05/21 09:04:23;;;;;;;2.75;1.05;;;;;;;24.89;49.60;98954.16;5073298;28;20129;-63
2022/05/21 09:07:18;;;;;;;1.88;1.25;;;;;;;24.86;49.01;98949.19;5062181;28;20037;-63
2022/05/21 09:10:03;;;;;;;4.18;1.30;;;;;;;24.79;47.90;98948.31;5058624;28;20040;-62
2022/05/21 09:13:14;;;;;;;1.05;0.80;;;;;;;24.99;46.40;98955.72;5073388;28;20140;-63
2022/05/21 09:19:04;;;;;;;1.30;0.70;;;;;;;25.76;44.82;98945.00;5072005;28;20044;-63
2022/05/21 09:21:55;;;;;;;2.33;0.70;;;;;;;25.73;45.21;98941.88;5072988;28;20040;-63
2022/05/21 09:24:44;;;;;;;1.90;1.00;;;;;;;26.20;44.45;98942.88;5072145;28;20036;-61
2022/05/21 09:27:33;;;;;;;2.47;0.93;;;;;;;26.04;44.51;98937.88;5073017;28;20109;-62
2022/05/21 09:30:24;;;;;;;1.48;1.00;;;;;;;26.20;44.63;98936.66;5072917;28;20464;-63
2022/05/21 09:33:36;;;;;;;2.97;0.98;;;;;;;25.65;44.62;98922.28;5071659;28;20048;-63
2022/05/21 09:36:33;;;;;;;1.45;0.70;;;;;;;25.80;43.54;98926.66;5069991;28;20048;-63
2022/05/21 09:39:32;;;;;;;1.75;0.90;;;;;;;26.28;42.61;98917.69;5071901;28;20047;-64
2022/05/21 09:45:22;;;;;;;1.50;1.25;;;;;;;26.23;44.53;98916.66;5037745;28;20048;-63
2022/05/21 09:45:32;;;;;;;5.68;0.88;;;;;;;26.56;44.33;98932.81;5069924;28;20044;-64
2022/05/21 09:48:21;;;;;;;11.52;1.23;;;;;;;25.76;43.31;98917.34;5071388;28;20048;-65
2022/05/21 09:51:19;;;;;;;3.15;1.00;;;;;;;26.25;43.27;98910.03;5071071;28;20106;-65
2022/05/21 09:54:19;;;;;;;2.55;0.82;;;;;;;26.79;41.64;98914.59;5070882;28;20040;-66
2022/05/21 09:57:05;;;;;;;2.50;1.00;;;;;;;27.31;41.75;98913.91;5064464;28;20468;-64
2022/05/21 10:00:24;;;;;;;4.45;1.02;;;;;;;26.67;39.92;98911.72;5060214;28;20041;-64
2022/05/21 10:03:10;;;;;;;3.25;1.05;;;;;;;26.56;41.11;98907.81;5090605;28;20099;-64
2022/05/21 10:05:58;;;;;;;2.88;0.93;;;;;;;26.77;39.93;98901.38;5061852;28;20040;-64
2022/05/21 10:12:17;;;;;;;3.50;0.73;;;;;;;26.68;39.37;98908.00;5059349;28;20056;-64
2022/05/21 10:15:11;;;;;;;1.38;0.90;;;;;;;26.34;39.56;98908.03;5055775;28;20033;-64
2022/05/21 10:18:19;;;;;;;0.95;0.68;;;;;;;25.58;41.11;98913.34;5063207;28;20071;-65
2022/05/21 10:21:21;;;;;;;2.85;0.93;;;;;;;25.88;40.51;98907.72;5058995;28;20057;-64
2022/05/21 10:24:54;;;;;;;0.95;0.73;;;;;;;26.46;40.33;98923.53;5058298;28;20487;-63
2022/05/21 10:27:58;;;;;;;3.40;0.80;;;;;;;26.40;40.67;98926.00;5050785;28;20037;-63
2022/05/21 10:31:02;;;;;;;2.30;0.70;;;;;;;26.56;38.93;98915.88;5053798;28;20041;-64
2022/05/21 10:33:52;;;;;;;1.90;0.98;;;;;;;26.20;39.26;98907.97;5056696;28;20071;-65
2022/05/21 10:36:50;;;;;;;2.90;1.02;;;;;;;26.36;39.44;98915.88;5065400;28;20369;-65
2022/05/21 10:39:54;;;;;;;3.70;0.90;;;;;;;26.73;38.86;98905.53;5064398;28;20037;-65
2022/05/21 10:42:59;;;;;;;2.10;0.80;;;;;;;26.28;38.06;98896.19;5075106;28;20037;-64
2022/05/21 10:46:25;;;;;;;4.22;1.00;;;;;;;26.97;39.23;98897.00;5075112;28;20052;-64
2022/05/21 10:49:16;;;;;;;4.45;0.82;;;;;;;27.11;38.13;98900.53;5075620;28;20044;-63
2022/05/21 10:52:40;;;;;;;1.17;0.63;;;;;;;27.62;36.57;98900.75;5060378;28;20049;-64
2022/05/21 10:55:37;;;;;;;1.90;1.00;;;;;;;26.79;37.31;98893.13;5074254;28;20491;-64
2022/05/21 10:58:30;;;;;;;0.80;0.60;;;;;;;26.77;36.33;98893.31;5075134;28;20559;-65
2022/05/21 11:01:22;;;;;;;3.33;1.08;;;;;;;26.47;37.46;98885.72;5074098;28;20462;-63
2022/05/21 11:04:25;;;;;;;2.72;0.77;;;;;;;26.50;37.05;98881.78;5075481;28;20071;-63
2022/05/21 11:07:35;;;;;;;1.45;0.65;;;;;;;26.86;36.59;98888.56;5077788;28;20048;-63
2022/05/21 11:10:39;;;;;;;3.42;1.02;;;;;;;27.63;36.40;98880.91;5076077;28;20036;-63
2022/05/21 11:13:28;;;;;;;0.98;0.63;;;;;;;27.54;36.19;98886.53;5075461;28;20056;-63
2022/05/21 11:16:23;;;;;;;1.67;0.70;;;;;;;28.09;35.47;98881.69;5074785;28;20089;-63
2022/05/21 11:19:29;;;;;;;5.70;0.77;;;;;;;26.70;37.70;98900.59;5074066;28;20039;-61
2022/05/21 11:22:25;;;;;;;2.40;0.90;;;;;;;26.61;35.74;98893.75;5055807;28;20092;-64
2022/05/21 11:25:21;;;;;;;2.15;0.68;;;;;;;26.67;35.97;98871.44;5061277;28;20037;-63
2022/05/21 11:28:25;;;;;;;4.72;1.00;;;;;;;27.40;34.58;98874.19;5066738;28;20044;-63
2022/05/21 11:37:42;;;;;;;1.25;0.60;;;;;;;27.51;33.50;98873.50;5063811;28;20086;-64
2022/05/21 11:41:24;;;;;;;1.10;0.63;;;;;;;27.77;34.36;98879.81;5070984;28;20052;-65
2022/05/21 11:47:12;;;;;;;2.10;0.57;;;;;;;27.10;34.61;98880.88;5072406;28;20098;-61
2022/05/21 11:49:57;;;;;;;1.00;0.70;;;;;;;27.17;33.93;98878.19;5072272;28;20676;-63
2022/05/21 11:52:55;;;;;;;2.42;0.77;;;;;;;27.76;33.85;98866.59;5073542;28;20040;-64
2022/05/21 11:56:01;;;;;;;2.33;0.90;;;;;;;27.63;34.35;98880.91;5073432;28;20052;-71
2022/05/21 11:58:58;;;;;;;1.25;0.70;;;;;;;27.82;34.25;98863.03;5073006;28;20044;-67
2022/05/21 12:01:44;;;;;;;2.10;0.90;;;;;;;27.25;34.74;98869.06;5071042;28;20047;-67
2022/05/21 12:04:41;;;;;;;1.30;0.80;;;;;;;27.63;36.12;98876.31;5066564;28;20063;-66
2022/05/21 12:07:40;;;;;;;1.85;0.95;;;;;;;27.96;35.72;98857.56;5051414;28;20082;-68
2022/05/21 12:10:47;;;;;;;3.60;1.17;;;;;;;28.06;35.60;98873.22;5055585;28;20407;-64
2022/05/21 12:13:35;;;;;;;2.10;1.05;;;;;;;27.60;35.86;98866.00;5054003;28;20055;-64
2022/05/21 12:16:20;;;;;;;1.25;0.85;;;;;;;27.66;34.40;98869.72;5054403;28;20104;-65
2022/05/21 12:19:08;;;;;;;1.27;0.80;;;;;;;27.42;34.15;98867.53;5054212;28;20048;-63
2022/05/21 12:21:52;;;;;;;1.20;0.73;;;;;;;27.64;34.14;98872.63;5054556;28;20036;-63
2022/05/21 12:24:42;;;;;;;1.15;0.88;;;;;;;27.75;34.34;98854.97;5065210;28;20047;-66
2022/05/21 12:27:28;;;;;;;1.85;0.80;;;;;;;28.03;33.95;98843.00;5069962;28;20048;-66
2022/05/21 12:30:27;;;;;;;1.60;0.90;;;;;;;27.25;35.66;98859.13;5067347;28;20115;-66
2022/05/21 12:33:24;;;;;;;2.40;0.80;;;;;;;27.71;34.75;98845.72;5058852;28;20044;-64
2022/05/21 12:36:18;;;;;;;1.75;0.85;;;;;;;27.55;33.20;98836.22;5074270;28;20036;-65
2022/05/21 12:39:05;;;;;;;1.73;0.60;;;;;;;27.66;31.91;98846.31;5059576;28;20041;-65
2022/05/21 12:41:55;;;;;;;1.63;0.70;;;;;;;27.27;32.45;98837.41;5053941;28;20492;-68
2022/05/21 12:44:43;;;;;;;3.00;0.85;;;;;;;27.91;31.90;98825.91;5053043;28;20044;-64
2022/05/21 12:47:34;;;;;;;4.93;1.00;;;;;;;28.62;31.96;98851.88;5052796;28;20041;-71
2022/05/21 12:50:22;;;;;;;4.43;0.90;;;;;;;27.68;31.37;98835.38;5053410;28;20475;-64
2022/05/21 12:53:09;;;;;;;0.77;0.50;;;;;;;27.84;32.19;98823.28;5053856;28;20044;-63
2022/05/21 12:56:00;;;;;;;2.38;0.88;;;;;;;27.76;30.42;98826.22;5052625;28;20036;-62
2022/05/21 12:58:46;;;;;;;0.98;0.60;;;;;;;28.23;30.18;98839.34;5053969;28;20041;-65
2022/05/21 13:01:34;;;;;;;2.08;0.75;;;;;;;28.03;30.27;98836.78;5052724;28;20044;-64
2022/05/21 13:04:31;;;;;;;1.48;0.60;;;;;;;27.51;30.88;98816.19;5053431;28;20037;-63
2022/05/21 13:07:21;;;;;;;0.82;0.50;;;;;;;27.27;30.92;98816.72;5052415;28;20422;-64
2022/05/21 13:10:21;;;;;;;2.70;0.85;;;;;;;27.62;30.53;98818.19;5053637;28;20099;-64
2022/05/21 13:13:12;;;;;;;1.17;0.60;;;;;;;28.19;29.94;98827.34;5053177;28;20499;-64
2022/05/21 13:16:00;;;;;;;0.98;0.50;;;;;;;28.59;28.36;98790.34;5053182;28;20037;-64
2022/05/21 13:19:06;;;;;;;2.38;0.50;;;;;;;27.55;30.24;98818.22;5053038;28;20041;-65
2022/05/21 13:22:16;;;;;;;1.23;0.60;;;;;;;26.20;30.41;98821.25;5085585;28;20107;-64
2022/05/21 13:25:03;;;;;;;2.67;0.77;;;;;;;26.41;31.34;98817.56;5066888;28;20369;-64
2022/05/21 13:27:56;;;;;;;1.60;0.65;;;;;;;27.22;29.22;98811.19;5073262;28;20036;-65
2022/05/21 13:30:46;;;;;;;0.93;0.60;;;;;;;27.61;29.10;98813.03;5071959;28;20816;-65
2022/05/21 13:33:35;;;;;;;1.95;0.50;;;;;;;27.15;29.87;98807.69;5073513;28;20044;-63
2022/05/21 13:36:34;;;;;;;2.85;0.50;;;;;;;27.20;29.44;98807.03;5072430;28;20523;-65
2022/05/21 13:39:25;;;;;;;0.70;0.50;;;;;;;26.95;28.76;98813.91;5072726;28;20036;-64
2022/05/21 13:42:15;;;;;;;0.85;0.50;;;;;;;26.58;28.69;98811.75;5058304;28;20546;-65
2022/05/21 13:45:07;;;;;;;1.67;0.68;;;;;;;26.46;29.67;98813.44;5072206;28;20040;-64
2022/05/21 13:48:01;;;;;;;4.00;0.68;;;;;;;26.89;29.68;98809.41;5073116;28;20115;-64
2022/05/21 13:50:47;;;;;;;1.35;0.60;;;;;;;27.20;28.65;98805.19;5057740;28;20102;-64